Time;durP1;ratioP1;P1;durP2;ratioP2;P2;SDS_P1;SDS_P2;PMS_P1;PMS_P2;Temp;Humidity;BMP_temperature;BMP_pressure;BME280_temperature;BME280_humidity;BME280_pressure;Samples;Min_cycle;Max_cycle;Signal;HPM_P1;HPM_P2
2020/12/04 00:00:10;;;;;;;8.07;5.70;;;5.30;1.00;;;;;;5095500;28;20209;-65
2020/12/04 00:02:36;;;;;;;5.63;4.75;;;5.30;1.00;;;;;;5096076;28;20172;-65
2020/12/04 00:05:02;;;;;;;7.27;4.90;;;5.30;1.00;;;;;;5095875;28;20195;-65
2020/12/04 00:07:28;;;;;;;7.28;4.85;;;5.30;1.00;;;;;;5095943;28;20170;-60
2020/12/04 00:09:53;;;;;;;13.00;4.83;;;5.30;1.00;;;;;;5096183;28;20171;-64
2020/12/04 00:12:19;;;;;;;5.73;5.10;;;5.30;1.00;;;;;;5095807;28;20395;-65
2020/12/04 00:14:44;;;;;;;7.20;4.73;;;5.30;1.00;;;;;;5096523;28;20186;-65
2020/12/04 00:17:10;;;;;;;7.00;4.70;;;5.40;1.00;;;;;;5095772;28;20174;-63
2020/12/04 00:19:35;;;;;;;8.37;5.17;;;5.30;1.00;;;;;;5095998;28;20178;-65
2020/12/04 00:22:01;;;;;;;9.10;5.13;;;5.30;1.00;;;;;;5095693;28;20199;-65
2020/12/04 00:24:29;;;;;;;8.90;5.33;;;5.40;1.00;;;;;;5095640;28;20191;-64
2020/12/04 00:26:55;;;;;;;6.38;4.72;;;5.40;1.00;;;;;;5095582;28;20258;-65
2020/12/04 00:29:22;;;;;;;7.93;5.75;;;5.40;1.00;;;;;;5095809;28;20172;-65
2020/12/04 00:31:47;;;;;;;6.32;4.68;;;5.30;1.00;;;;;;5095824;28;20262;-65
2020/12/04 00:34:13;;;;;;;7.40;5.10;;;5.30;1.00;;;;;;5095284;28;20287;-60
2020/12/04 00:36:38;;;;;;;6.07;4.27;;;5.30;1.00;;;;;;5095374;28;20171;-65
2020/12/04 00:39:04;;;;;;;6.10;4.90;;;5.40;1.00;;;;;;5095871;28;20168;-65
2020/12/04 00:41:29;;;;;;;6.80;5.10;;;5.30;1.00;;;;;;5095769;28;20203;-64
2020/12/04 00:43:55;;;;;;;8.87;4.93;;;5.30;1.00;;;;;;5095406;28;20229;-64
2020/12/04 00:46:20;;;;;;;7.27;5.37;;;5.30;1.00;;;;;;5095169;28;20168;-65
2020/12/04 00:48:46;;;;;;;6.80;4.77;;;5.40;1.00;;;;;;5095164;28;20168;-65
2020/12/04 00:51:12;;;;;;;5.53;4.60;;;5.40;1.00;;;;;;5095087;28;20167;-65
2020/12/04 00:53:38;;;;;;;7.10;5.03;;;5.40;1.00;;;;;;5094921;28;20199;-65
2020/12/04 00:56:04;;;;;;;6.40;4.80;;;5.40;1.00;;;;;;5094954;28;20175;-65
2020/12/04 00:58:32;;;;;;;7.93;4.73;;;5.30;1.00;;;;;;5094898;28;20543;-65
2020/12/04 01:00:58;;;;;;;9.40;5.50;;;5.30;1.00;;;;;;5094931;28;20159;-65
2020/12/04 01:03:24;;;;;;;6.20;4.85;;;5.30;1.00;;;;;;5094801;28;20587;-65
2020/12/04 01:05:49;;;;;;;6.10;4.53;;;5.30;1.00;;;;;;5094781;28;20167;-64
2020/12/04 01:08:15;;;;;;;6.23;5.40;;;5.30;1.00;;;;;;5094702;28;20178;-65
2020/12/04 01:10:40;;;;;;;6.50;4.97;;;5.30;1.00;;;;;;5093873;28;20171;-64
2020/12/04 01:13:06;;;;;;;5.97;4.57;;;5.20;1.00;;;;;;5094481;28;20267;-65
2020/12/04 01:15:31;;;;;;;7.80;6.10;;;5.10;1.00;;;;;;5094644;28;20216;-65
2020/12/04 01:17:57;;;;;;;7.40;4.53;;;5.10;1.00;;;;;;5094591;28;20159;-64
2020/12/04 01:20:23;;;;;;;8.23;6.38;;;5.20;1.00;;;;;;5094538;28;20628;-65
2020/12/04 01:22:49;;;;;;;7.60;5.60;;;5.20;1.00;;;;;;5094716;28;20182;-65
2020/12/04 01:25:14;;;;;;;7.77;5.70;;;5.10;1.00;;;;;;5094485;28;20175;-64
2020/12/04 01:27:40;;;;;;;8.20;5.40;;;5.20;1.00;;;;;;5094665;28;20179;-65
2020/12/04 01:30:05;;;;;;;9.03;6.10;;;5.20;1.00;;;;;;5094318;28;20639;-65
2020/12/04 01:32:31;;;;;;;6.23;4.97;;;5.20;1.00;;;;;;5094198;28;20667;-65
2020/12/04 01:34:56;;;;;;;8.10;4.67;;;5.20;1.00;;;;;;5094204;28;20202;-65
2020/12/04 01:37:22;;;;;;;5.97;5.30;;;5.10;1.00;;;;;;5094505;28;20171;-64
2020/12/04 01:39:47;;;;;;;6.70;5.27;;;5.20;1.00;;;;;;5094699;28;20175;-63
2020/12/04 01:42:13;;;;;;;6.70;5.20;;;5.10;1.00;;;;;;5094603;28;20186;-64
2020/12/04 01:44:38;;;;;;;7.30;4.80;;;5.10;1.00;;;;;;5094218;28;20597;-64
2020/12/04 01:47:04;;;;;;;6.20;5.50;;;5.10;1.00;;;;;;5094191;28;20691;-64
2020/12/04 01:49:30;;;;;;;7.37;5.40;;;5.10;1.00;;;;;;5094021;28;20517;-65
2020/12/04 01:51:55;;;;;;;8.70;5.67;;;5.10;1.00;;;;;;5094033;28;20254;-65
2020/12/04 01:54:22;;;;;;;7.67;5.60;;;5.10;1.00;;;;;;5093734;28;20571;-65
2020/12/04 01:56:48;;;;;;;7.28;4.85;;;5.20;1.00;;;;;;5093876;28;20441;-63
2020/12/04 01:59:14;;;;;;;8.07;6.30;;;5.00;1.00;;;;;;5094054;28;20702;-65
2020/12/04 02:01:42;;;;;;;7.70;5.80;;;5.10;1.00;;;;;;5094310;28;20175;-64
2020/12/04 02:04:09;;;;;;;6.32;5.28;;;5.10;1.00;;;;;;5093560;28;20623;-63
2020/12/04 02:06:53;;;;;;;7.00;5.07;;;5.20;1.00;;;;;;5093955;28;20256;-65
2020/12/04 02:09:30;;;;;;;9.95;5.60;;;5.20;1.00;;;;;;5093629;28;20692;-64
2020/12/04 02:12:00;;;;;;;5.90;4.60;;;5.10;1.00;;;;;;5093871;28;20151;-65
2020/12/04 02:14:26;;;;;;;7.05;5.65;;;5.10;1.00;;;;;;5093404;28;20209;-61
2020/12/04 02:17:05;;;;;;;6.97;5.30;;;5.10;1.10;;;;;;5093564;28;20160;-65
2020/12/04 02:19:37;;;;;;;7.00;5.38;;;5.10;1.00;;;;;;5093336;28;20394;-65
2020/12/04 02:22:04;;;;;;;5.82;4.32;;;5.00;11.50;;;;;;5093307;28;20175;-65
2020/12/04 02:24:30;;;;;;;8.95;5.18;;;5.10;1.00;;;;;;5093358;28;20195;-65
2020/12/04 02:26:56;;;;;;;5.43;4.40;;;5.20;1.00;;;;;;5093370;28;20254;-65
2020/12/04 02:29:22;;;;;;;5.83;5.17;;;5.10;1.00;;;;;;5094071;28;20191;-62
2020/12/04 02:31:48;;;;;;;5.97;4.77;;;5.20;1.00;;;;;;5094453;28;20586;-65
2020/12/04 02:34:13;;;;;;;7.40;5.67;;;5.20;1.00;;;;;;5093328;28;20419;-65
2020/12/04 02:36:39;;;;;;;5.60;4.90;;;5.20;1.00;;;;;;5093397;28;20163;-65
2020/12/04 02:39:05;;;;;;;8.73;6.10;;;5.20;1.00;;;;;;5093661;28;20544;-65
2020/12/04 02:41:31;;;;;;;6.30;4.85;;;5.20;1.00;;;;;;5093498;28;20177;-65
2020/12/04 02:43:56;;;;;;;8.33;5.27;;;5.20;1.00;;;;;;5093419;28;20191;-65
2020/12/04 02:46:22;;;;;;;7.20;4.57;;;5.20;1.00;;;;;;5093185;28;20174;-65
2020/12/04 02:48:48;;;;;;;6.10;4.97;;;5.20;1.00;;;;;;5093312;28;20171;-65
2020/12/04 02:51:13;;;;;;;6.27;4.73;;;5.20;1.00;;;;;;5093155;28;20304;-65
2020/12/04 02:53:39;;;;;;;7.03;4.57;;;5.10;1.00;;;;;;5093294;28;20214;-65
2020/12/04 02:56:04;;;;;;;7.80;5.50;;;5.10;1.10;;;;;;5093072;28;20166;-65
2020/12/04 02:58:31;;;;;;;6.90;4.80;;;5.20;1.00;;;;;;5093133;28;20164;-65
2020/12/04 03:00:57;;;;;;;7.18;5.60;;;5.20;1.00;;;;;;5093398;28;20175;-65
2020/12/04 03:03:22;;;;;;;7.80;5.60;;;5.20;1.00;;;;;;5092761;28;20214;-60
2020/12/04 03:05:48;;;;;;;7.90;4.87;;;5.10;1.00;;;;;;5093105;28;20406;-65
2020/12/04 03:08:13;;;;;;;6.17;4.83;;;5.10;1.00;;;;;;5093084;28;20250;-65
2020/12/04 03:10:39;;;;;;;6.40;4.70;;;5.20;1.00;;;;;;5093167;28;20258;-65
2020/12/04 03:13:05;;;;;;;6.83;5.53;;;5.10;1.30;;;;;;5092746;28;20635;-65
2020/12/04 03:15:30;;;;;;;6.27;4.50;;;5.10;4.30;;;;;;5093072;28;20212;-65
2020/12/04 03:17:56;;;;;;;6.00;4.73;;;5.10;17.90;;;;;;5093201;28;20210;-65
2020/12/04 03:20:21;;;;;;;7.03;5.07;;;5.10;6.50;;;;;;5092871;28;20202;-65
2020/12/04 03:22:47;;;;;;;8.60;6.10;;;5.20;9.30;;;;;;5092745;28;20178;-65
2020/12/04 03:25:13;;;;;;;6.03;4.80;;;5.20;11.80;;;;;;5091563;28;20648;-65
2020/12/04 03:27:39;;;;;;;5.50;4.40;;;5.10;10.90;;;;;;5092757;28;20175;-61
2020/12/04 03:30:04;;;;;;;8.53;5.43;;;5.20;14.30;;;;;;5093079;28;20175;-62
2020/12/04 03:32:30;;;;;;;6.63;5.47;;;5.30;12.90;;;;;;5093148;28;20168;-65
2020/12/04 03:34:56;;;;;;;6.83;4.80;;;5.30;20.30;;;;;;5095563;28;20270;-65
2020/12/04 03:37:21;;;;;;;6.60;4.40;;;5.20;8.30;;;;;;5096865;28;20172;-62
2020/12/04 03:39:47;;;;;;;6.20;4.67;;;5.30;8.50;;;;;;5096536;28;20917;-65
2020/12/04 03:42:13;;;;;;;6.33;4.73;;;5.30;32.60;;;;;;5096775;28;20174;-65
2020/12/04 03:44:38;;;;;;;7.70;5.20;;;5.40;12.70;;;;;;5096396;28;20191;-65
2020/12/04 03:47:04;;;;;;;5.97;4.70;;;5.40;12.90;;;;;;5096686;28;20651;-63
2020/12/04 03:49:30;;;;;;;4.93;4.30;;;5.30;15.20;;;;;;5096650;28;20178;-65
2020/12/04 03:51:55;;;;;;;4.90;3.95;;;5.30;20.60;;;;;;5096541;28;20179;-65
2020/12/04 03:54:21;;;;;;;7.87;4.87;;;5.40;22.00;;;;;;5096067;28;20203;-65
2020/12/04 03:56:46;;;;;;;7.87;5.33;;;5.40;10.00;;;;;;5096197;28;20246;-65
2020/12/04 03:59:12;;;;;;;4.00;3.60;;;5.40;19.80;;;;;;5096177;28;20167;-65
2020/12/04 04:01:38;;;;;;;5.67;4.73;;;5.40;16.20;;;;;;5096093;28;20225;-65
2020/12/04 04:04:03;;;;;;;4.80;4.00;;;5.40;17.70;;;;;;5095901;28;20207;-65
2020/12/04 04:06:29;;;;;;;5.50;4.50;;;5.50;13.80;;;;;;5096261;28;20171;-65
2020/12/04 04:08:54;;;;;;;6.77;4.63;;;5.40;11.70;;;;;;5096175;28;20208;-65
2020/12/04 04:11:20;;;;;;;6.60;4.80;;;5.50;11.70;;;;;;5096148;28;20219;-64
2020/12/04 04:13:45;;;;;;;6.93;4.40;;;5.60;11.10;;;;;;5095722;28;20207;-65
2020/12/04 04:16:11;;;;;;;7.20;4.63;;;5.50;13.10;;;;;;5095995;28;20217;-65
2020/12/04 04:18:37;;;;;;;6.40;5.17;;;5.60;12.60;;;;;;5096030;28;20174;-65
2020/12/04 04:21:10;;;;;;;5.80;4.32;;;5.50;12.40;;;;;;5095967;28;20170;-64
2020/12/04 04:23:35;;;;;;;5.95;4.30;;;5.50;13.60;;;;;;5095626;28;20226;-65
2020/12/04 04:26:01;;;;;;;5.57;4.30;;;5.60;8.00;;;;;;5095711;28;20211;-65
2020/12/04 04:28:26;;;;;;;7.27;4.80;;;5.60;4.20;;;;;;5095644;28;20175;-59
2020/12/04 04:30:52;;;;;;;8.23;4.90;;;5.60;1.70;;;;;;5095525;28;20609;-65
2020/12/04 04:33:17;;;;;;;6.43;4.60;;;5.70;6.20;;;;;;5095915;28;20214;-65
2020/12/04 04:35:43;;;;;;;9.63;5.33;;;5.70;1.00;;;;;;5095452;28;20170;-65
2020/12/04 04:38:08;;;;;;;7.83;4.50;;;5.70;1.00;;;;;;5095958;28;20258;-65
2020/12/04 04:40:34;;;;;;;6.13;3.97;;;5.60;11.00;;;;;;5095383;28;20267;-65
2020/12/04 04:43:14;;;;;;;6.00;4.80;;;5.70;1.00;;;;;;5095556;28;20571;-65
2020/12/04 04:45:43;;;;;;;6.97;4.82;;;5.70;8.20;;;;;;5094079;28;20174;-65
2020/12/04 04:48:24;;;;;;;6.45;4.25;;;5.70;1.90;;;;;;5096023;28;20179;-65
2020/12/04 04:50:53;;;;;;;6.63;4.30;;;5.70;1.00;;;;;;5096009;28;20160;-65
2020/12/04 04:53:20;;;;;;;5.10;4.35;;;5.70;3.10;;;;;;5094927;28;20718;-63
2020/12/04 04:55:45;;;;;;;8.77;5.35;;;5.80;1.60;;;;;;5095344;28;20521;-65
2020/12/04 04:58:11;;;;;;;5.10;4.10;;;5.80;1.00;;;;;;5095018;28;20259;-65
2020/12/04 05:00:37;;;;;;;5.63;4.00;;;5.80;1.00;;;;;;5095327;28;20203;-64
2020/12/04 05:03:07;;;;;;;7.43;4.30;;;5.80;1.00;;;;;;5094708;28;20203;-65
2020/12/04 05:05:59;;;;;;;6.00;4.25;;;5.80;1.00;;;;;;5096247;28;20666;-65
2020/12/04 05:08:25;;;;;;;6.55;3.90;;;5.90;1.00;;;;;;5092827;28;20555;-65
2020/12/04 05:10:50;;;;;;;6.17;3.70;;;6.00;1.00;;;;;;5094877;28;20168;-66
2020/12/04 05:13:21;;;;;;;6.30;4.27;;;6.00;1.00;;;;;;5094825;28;20199;-66
2020/12/04 05:15:47;;;;;;;7.75;4.10;;;6.00;1.00;;;;;;5094590;28;20171;-65
2020/12/04 05:18:18;;;;;;;7.63;4.55;;;6.00;1.00;;;;;;5094647;28;20171;-66
2020/12/04 05:20:49;;;;;;;5.13;3.88;;;6.00;1.00;;;;;;5094764;28;20233;-65
2020/12/04 05:23:15;;;;;;;4.63;3.97;;;6.10;1.00;;;;;;5094561;28;20256;-65
2020/12/04 05:25:43;;;;;;;5.07;3.45;;;6.10;1.00;;;;;;5094710;28;20172;-65
2020/12/04 05:28:22;;;;;;;3.38;3.08;;;6.10;1.00;;;;;;5094348;28;20221;-65
2020/12/04 05:31:08;;;;;;;6.28;3.33;;;6.20;1.00;;;;;;5094760;28;20160;-65
2020/12/04 05:33:34;;;;;;;3.78;3.40;;;6.10;1.00;;;;;;5094592;28;20208;-65
2020/12/04 05:36:00;;;;;;;5.07;3.43;;;6.20;1.00;;;;;;5094384;28;20167;-65
2020/12/04 05:38:26;;;;;;;3.80;2.72;;;6.20;1.00;;;;;;5094608;28;20380;-65
2020/12/04 05:41:08;;;;;;;4.80;3.67;;;6.30;1.00;;;;;;5094308;28;20277;-66
2020/12/04 05:43:37;;;;;;;3.85;3.08;;;6.30;1.00;;;;;;5094243;28;20194;-65
2020/12/04 05:46:11;;;;;;;5.22;3.13;;;6.30;1.00;;;;;;5094194;28;20170;-65
2020/12/04 05:48:37;;;;;;;4.20;3.15;;;6.30;1.00;;;;;;5094636;28;20605;-65
2020/12/04 05:51:03;;;;;;;7.50;2.90;;;6.40;1.00;;;;;;5094247;28;20172;-65
2020/12/04 05:53:28;;;;;;;3.50;2.67;;;6.40;1.00;;;;;;5093900;28;20203;-65
2020/12/04 05:55:54;;;;;;;5.17;3.20;;;6.50;1.00;;;;;;5094133;28;20529;-65
2020/12/04 05:58:25;;;;;;;2.70;2.37;;;6.50;1.00;;;;;;5093748;28;20191;-65
2020/12/04 06:00:51;;;;;;;3.50;2.65;;;6.40;1.00;;;;;;5094386;28;20215;-65
2020/12/04 06:03:16;;;;;;;3.60;2.40;;;6.50;1.00;;;;;;5094735;28;20211;-62
2020/12/04 06:05:42;;;;;;;2.53;2.10;;;6.50;1.00;;;;;;5094411;28;20183;-65
2020/12/04 06:08:08;;;;;;;3.33;2.57;;;6.60;1.00;;;;;;5093621;28;20175;-65
2020/12/04 06:10:35;;;;;;;3.47;2.40;;;6.60;1.00;;;;;;5093965;28;20171;-65
2020/12/04 06:13:02;;;;;;;3.65;3.28;;;6.70;1.00;;;;;;5093601;28;20206;-65
2020/12/04 06:15:32;;;;;;;3.83;2.65;;;6.70;1.00;;;;;;5093119;28;20171;-65
2020/12/04 06:18:07;;;;;;;7.10;3.03;;;6.70;1.00;;;;;;5093629;28;20163;-64
2020/12/04 06:20:47;;;;;;;6.38;3.88;;;6.80;1.00;;;;;;5093399;28;20658;-65
2020/12/04 06:23:15;;;;;;;3.33;2.92;;;6.80;1.00;;;;;;5093412;28;20276;-65
2020/12/04 06:25:57;;;;;;;3.08;2.60;;;6.90;1.00;;;;;;5094302;28;20643;-66
2020/12/04 06:28:30;;;;;;;3.92;3.13;;;7.00;1.00;;;;;;5093323;28;20176;-64
2020/12/04 06:31:06;;;;;;;4.90;3.00;;;6.90;1.00;;;;;;5093315;28;20648;-65
2020/12/04 06:33:42;;;;;;;3.55;2.00;;;6.90;1.00;;;;;;5092903;28;20674;-65
2020/12/04 06:36:10;;;;;;;3.38;2.20;;;6.90;1.00;;;;;;5092788;28;20285;-65
2020/12/04 06:38:38;;;;;;;3.50;2.67;;;6.90;1.00;;;;;;5092873;28;20163;-61
2020/12/04 06:41:34;;;;;;;2.75;2.22;;;6.90;1.00;;;;;;5093058;28;20167;-64
2020/12/04 06:44:27;;;;;;;2.70;2.10;;;6.90;1.00;;;;;;5093023;28;20206;-64
2020/12/04 06:46:58;;;;;;;2.63;2.05;;;7.00;1.00;;;;;;5091231;28;20266;-65
2020/12/04 06:49:38;;;;;;;7.10;2.45;;;6.90;1.00;;;;;;5093082;28;20155;-65
2020/12/04 06:52:17;;;;;;;2.40;2.00;;;7.00;1.00;;;;;;5093343;28;20159;-63
2020/12/04 06:54:45;;;;;;;3.30;2.63;;;7.00;1.00;;;;;;5093073;28;20207;-65
2020/12/04 06:57:12;;;;;;;2.35;1.80;;;7.00;1.00;;;;;;5093007;28;20651;-65
2020/12/04 06:59:41;;;;;;;3.85;2.08;;;7.00;1.90;;;;;;5092973;28;20172;-65
2020/12/04 07:02:09;;;;;;;4.82;2.40;;;7.10;7.20;;;;;;5093117;28;20262;-65
2020/12/04 07:04:38;;;;;;;3.33;1.88;;;7.10;1.00;;;;;;5092462;28;20551;-64
2020/12/04 07:07:21;;;;;;;3.30;2.20;;;7.10;1.80;;;;;;5092781;28;20179;-64
2020/12/04 07:09:57;;;;;;;3.47;2.15;;;7.10;1.00;;;;;;5095302;28;20186;-65
2020/12/04 07:12:26;;;;;;;2.08;1.80;;;7.20;1.00;;;;;;5097128;28;20559;-65
2020/12/04 07:15:01;;;;;;;2.33;1.95;;;7.20;1.00;;;;;;5096673;28;20707;-65
2020/12/04 07:17:29;;;;;;;1.98;1.75;;;7.10;3.40;;;;;;5097169;28;20523;-65
2020/12/04 07:19:56;;;;;;;2.50;2.20;;;7.20;10.60;;;;;;5096764;28;20167;-65
2020/12/04 07:22:23;;;;;;;3.63;2.30;;;7.20;13.50;;;;;;5096172;28;20171;-65
2020/12/04 07:24:50;;;;;;;2.58;2.10;;;7.20;13.30;;;;;;5096569;28;20191;-64
2020/12/04 07:27:18;;;;;;;2.30;1.83;;;7.20;21.90;;;;;;5097032;28;20175;-65
2020/12/04 07:29:44;;;;;;;3.85;1.80;;;7.30;6.60;;;;;;5096506;28;20175;-64
2020/12/04 07:32:10;;;;;;;3.08;1.77;;;7.30;6.90;;;;;;5096594;28;20660;-64
2020/12/04 07:34:38;;;;;;;2.80;1.88;;;7.30;11.10;;;;;;5096682;28;20286;-64
2020/12/04 07:37:08;;;;;;;3.50;2.10;;;7.30;6.30;;;;;;5096644;28;20577;-64
2020/12/04 07:39:37;;;;;;;1.52;1.42;;;7.30;7.70;;;;;;5096305;28;20156;-65
2020/12/04 07:42:04;;;;;;;2.20;1.73;;;7.40;7.10;;;;;;5097054;28;20174;-65
2020/12/04 07:44:33;;;;;;;2.80;2.10;;;7.40;5.40;;;;;;5096083;28;20699;-64
2020/12/04 07:47:12;;;;;;;2.15;1.80;;;7.40;5.30;;;;;;5095942;28;20647;-64
2020/12/04 07:49:52;;;;;;;2.35;1.58;;;7.30;10.00;;;;;;5096252;28;20170;-64
2020/12/04 07:52:23;;;;;;;2.25;1.60;;;7.30;22.60;;;;;;5096206;28;20212;-64
2020/12/04 07:55:10;;;;;;;4.65;1.75;;;7.30;9.70;;;;;;5095966;28;20203;-64
2020/12/04 07:57:50;;;;;;;3.17;1.75;;;7.40;8.30;;;;;;5095885;28;20224;-64
2020/12/04 08:00:16;;;;;;;1.73;1.42;;;7.40;10.60;;;;;;5095320;28;20608;-65
2020/12/04 08:02:41;;;;;;;2.00;1.70;;;7.40;1.00;;;;;;5096445;28;20229;-65
2020/12/04 08:05:07;;;;;;;3.70;2.20;;;7.50;1.40;;;;;;5095964;28;20252;-66
2020/12/04 08:07:33;;;;;;;6.30;2.80;;;7.50;2.60;;;;;;5095496;28;20175;-66
2020/12/04 08:09:59;;;;;;;2.10;1.40;;;7.50;7.10;;;;;;5095521;28;20640;-65
2020/12/04 08:12:30;;;;;;;3.65;1.80;;;7.50;7.50;;;;;;5095590;28;20261;-66
2020/12/04 08:14:57;;;;;;;1.95;1.60;;;7.50;21.00;;;;;;5095554;28;20339;-65
2020/12/04 08:17:25;;;;;;;2.70;1.98;;;7.60;21.70;;;;;;5095580;28;20501;-65
2020/12/04 08:19:51;;;;;;;1.58;1.05;;;7.60;9.30;;;;;;5095487;28;20610;-66
2020/12/04 08:22:34;;;;;;;5.43;1.40;;;7.60;8.50;;;;;;5095763;28;20168;-65
2020/12/04 08:25:07;;;;;;;3.65;1.65;;;7.60;13.10;;;;;;5095318;28;20189;-65
2020/12/04 08:27:52;;;;;;;5.65;1.95;;;7.50;31.50;;;;;;5095765;28;20163;-64
2020/12/04 08:30:24;;;;;;;1.50;1.40;;;7.60;29.90;;;;;;5095537;28;20175;-65
2020/12/04 08:33:01;;;;;;;3.40;1.42;;;7.60;31.90;;;;;;5094814;28;20192;-65
2020/12/04 08:35:35;;;;;;;3.75;1.42;;;7.70;49.90;;;;;;5095083;28;20155;-65
2020/12/04 08:38:06;;;;;;;3.55;2.05;;;7.70;26.80;;;;;;5095346;28;20175;-65
2020/12/04 08:40:33;;;;;;;3.25;1.90;;;7.80;31.50;;;;;;5095442;28;20195;-65
2020/12/04 08:43:11;;;;;;;1.40;1.20;;;7.70;23.60;;;;;;5094855;28;20195;-65
2020/12/04 08:45:37;;;;;;;2.67;1.65;;;7.80;22.40;;;;;;5094991;28;20187;-65
2020/12/04 08:48:09;;;;;;;2.55;1.55;;;7.90;11.80;;;;;;5095090;28;20183;-65
2020/12/04 08:50:52;;;;;;;2.25;1.45;;;8.00;2.60;;;;;;5095165;28;20551;-63
2020/12/04 08:53:19;;;;;;;2.15;1.65;;;8.00;1.00;;;;;;5094589;28;20284;-65
2020/12/04 08:55:46;;;;;;;1.70;1.10;;;8.00;1.00;;;;;;5094779;28;20163;-65
2020/12/04 08:58:14;;;;;;;2.75;1.10;;;8.00;1.00;;;;;;5094302;28;20531;-64
2020/12/04 09:00:40;;;;;;;1.83;1.20;;;8.10;1.00;;;;;;5094771;28;20561;-65
2020/12/04 09:03:06;;;;;;;2.92;1.33;;;8.10;1.00;;;;;;5094267;28;20211;-65
2020/12/04 09:05:31;;;;;;;2.10;1.40;;;8.10;1.00;;;;;;5094790;28;20209;-65
2020/12/04 09:07:57;;;;;;;2.10;1.60;;;8.00;1.00;;;;;;5094462;28;20190;-65
2020/12/04 09:10:22;;;;;;;3.00;1.30;;;8.10;2.10;;;;;;5094680;28;20178;-65
2020/12/04 09:12:48;;;;;;;1.83;1.30;;;8.10;1.00;;;;;;5094182;28;20248;-65
2020/12/04 09:15:18;;;;;;;2.17;1.43;;;8.20;1.60;;;;;;5094406;28;20171;-65
2020/12/04 09:17:45;;;;;;;1.30;0.90;;;8.20;1.00;;;;;;5094275;28;20218;-65
2020/12/04 09:20:12;;;;;;;1.70;1.30;;;8.20;1.00;;;;;;5094287;28;20175;-63
2020/12/04 09:22:38;;;;;;;1.98;1.15;;;8.20;1.00;;;;;;5095156;28;20171;-65
2020/12/04 09:25:07;;;;;;;1.80;1.20;;;8.30;1.00;;;;;;5094415;28;20175;-65
2020/12/04 09:27:32;;;;;;;3.17;1.55;;;8.30;1.00;;;;;;5094456;28;20163;-65
2020/12/04 09:29:59;;;;;;;4.43;1.33;;;8.30;1.00;;;;;;5093904;28;20171;-65
2020/12/04 09:32:24;;;;;;;3.45;2.13;;;8.40;1.00;;;;;;5093266;28;20163;-65
2020/12/04 09:34:51;;;;;;;2.10;1.17;;;8.30;1.00;;;;;;5093934;28;20199;-65
2020/12/04 09:37:27;;;;;;;2.60;1.20;;;8.30;1.00;;;;;;5094279;28;20415;-65
2020/12/04 09:39:56;;;;;;;1.80;1.20;;;8.40;1.00;;;;;;5094281;28;20529;-65
2020/12/04 09:42:23;;;;;;;1.63;1.10;;;8.40;1.00;;;;;;5094241;28;20163;-59
2020/12/04 09:44:50;;;;;;;5.47;1.45;;;8.40;1.00;;;;;;5093960;28;20195;-66
2020/12/04 09:47:17;;;;;;;2.25;1.15;;;8.40;1.00;;;;;;5094392;28;20675;-65
2020/12/04 09:49:44;;;;;;;1.50;1.05;;;8.50;1.00;;;;;;5094322;28;20685;-66
2020/12/04 09:52:10;;;;;;;1.88;1.38;;;8.50;1.00;;;;;;5093455;28;20655;-66
2020/12/04 09:54:38;;;;;;;15.18;10.50;;;8.70;1.00;;;;;;5093077;28;20227;-65
2020/12/04 09:57:06;;;;;;;1.98;1.30;;;8.50;1.00;;;;;;5093766;28;20252;-65
2020/12/04 09:59:32;;;;;;;2.95;1.20;;;8.60;1.00;;;;;;5093666;28;20164;-66
2020/12/04 10:01:58;;;;;;;2.35;1.15;;;8.60;1.00;;;;;;5093889;28;20264;-65
2020/12/04 10:04:24;;;;;;;3.33;1.20;;;8.90;1.00;;;;;;5093135;28;20210;-65
2020/12/04 10:06:52;;;;;;;1.33;0.80;;;9.20;1.00;;;;;;5092238;28;20656;-65
2020/12/04 10:09:18;;;;;;;1.10;0.90;;;9.20;1.00;;;;;;5093550;28;20176;-65
2020/12/04 10:11:44;;;;;;;1.63;1.10;;;9.10;1.00;;;;;;5093499;28;20183;-66
2020/12/04 10:14:10;;;;;;;1.80;0.98;;;9.10;1.00;;;;;;5093191;28;20464;-66
2020/12/04 10:16:36;;;;;;;2.40;1.00;;;9.10;1.00;;;;;;5093206;28;20267;-65
2020/12/04 10:19:02;;;;;;;2.03;1.03;;;9.40;1.00;;;;;;5093308;28;20628;-65
2020/12/04 10:21:32;;;;;;;2.13;1.30;;;9.60;1.00;;;;;;5093364;28;20436;-65
2020/12/04 10:23:58;;;;;;;1.30;0.93;;;9.60;1.00;;;;;;5093530;28;20215;-66
2020/12/04 10:26:24;;;;;;;2.17;1.27;;;9.50;1.00;;;;;;5092973;28;20233;-65
2020/12/04 10:28:49;;;;;;;1.40;1.10;;;9.40;1.00;;;;;;5092611;28;20187;-65
2020/12/04 10:31:15;;;;;;;3.47;1.27;;;9.30;1.00;;;;;;5092824;28;20535;-66
2020/12/04 10:33:41;;;;;;;5.17;1.27;;;9.20;1.00;;;;;;5093059;28;20217;-64
2020/12/04 10:36:07;;;;;;;1.97;1.70;;;9.10;1.00;;;;;;5091361;28;20274;-66
2020/12/04 10:38:32;;;;;;;1.70;1.07;;;9.10;1.00;;;;;;5092794;28;20746;-66
2020/12/04 10:40:58;;;;;;;3.43;1.43;;;9.00;1.00;;;;;;5092774;28;20284;-64
2020/12/04 10:43:24;;;;;;;4.20;1.20;;;9.30;1.00;;;;;;5092802;28;20191;-66
2020/12/04 10:45:50;;;;;;;1.80;1.05;;;9.20;1.00;;;;;;5092875;28;20250;-66
2020/12/04 10:48:16;;;;;;;2.00;1.58;;;9.00;1.00;;;;;;5092946;28;20198;-65
2020/12/04 10:50:43;;;;;;;2.20;1.30;;;9.00;1.00;;;;;;5093085;28;20172;-65
2020/12/04 10:53:09;;;;;;;3.40;1.40;;;9.10;1.00;;;;;;5092814;28;20265;-64
2020/12/04 10:55:34;;;;;;;13.67;1.90;;;9.10;1.00;;;;;;5092689;28;20643;-65
2020/12/04 10:58:00;;;;;;;1.77;1.17;;;9.10;1.00;;;;;;5092718;28;20176;-65
2020/12/04 11:00:25;;;;;;;2.63;0.80;;;9.30;1.00;;;;;;5093279;28;20168;-65
2020/12/04 11:02:56;;;;;;;8.80;1.43;;;9.40;1.00;;;;;;5092563;28;20236;-66
2020/12/04 11:05:42;;;;;;;2.73;1.00;;;9.40;1.00;;;;;;5106697;22;20300;-67
2020/12/04 11:08:08;;;;;;;2.00;0.90;;;9.40;1.00;;;;;;5092920;28;20373;-67
2020/12/04 11:10:35;;;;;;;6.80;1.20;;;9.50;1.00;;;;;;5092562;28;20651;-67
2020/12/04 11:13:01;;;;;;;1.80;1.30;;;9.40;1.00;;;;;;5092770;28;20196;-67
2020/12/04 11:15:27;;;;;;;5.32;1.55;;;9.40;1.00;;;;;;5092948;28;20199;-69
2020/12/04 11:17:53;;;;;;;1.90;1.00;;;9.40;1.00;;;;;;5092521;28;20184;-69
2020/12/04 11:20:20;;;;;;;5.77;3.10;;;9.50;1.00;;;;;;5092793;28;20492;-69
2020/12/04 11:22:46;;;;;;;17.92;10.93;;;9.60;1.00;;;;;;5092637;28;20420;-70
2020/12/04 11:25:12;;;;;;;4.13;1.43;;;9.60;1.00;;;;;;5092893;28;20183;-68
2020/12/04 11:27:42;;;;;;;2.67;0.77;;;9.70;1.00;;;;;;5093690;28;20476;-68
2020/12/04 11:30:08;;;;;;;1.23;1.00;;;9.70;1.00;;;;;;5093840;28;20227;-68
2020/12/04 11:32:34;;;;;;;1.70;1.00;;;9.60;1.00;;;;;;5092284;28;20171;-68
2020/12/04 11:35:00;;;;;;;1.67;0.90;;;9.60;1.00;;;;;;5092537;28;20556;-68
2020/12/04 11:37:26;;;;;;;1.10;0.87;;;9.60;1.00;;;;;;5092376;28;20164;-68
2020/12/04 11:39:51;;;;;;;7.20;3.57;;;9.60;1.00;;;;;;5092241;28;20405;-68
2020/12/04 11:42:17;;;;;;;3.73;2.40;;;9.50;1.00;;;;;;5092886;28;20512;-68
2020/12/04 11:44:42;;;;;;;1.60;0.90;;;9.40;1.00;;;;;;5092319;28;20601;-67
2020/12/04 11:47:08;;;;;;;3.07;1.60;;;9.30;1.00;;;;;;5092426;28;20169;-68
2020/12/04 11:49:34;;;;;;;1.50;1.17;;;9.30;1.00;;;;;;5092557;28;20175;-68
2020/12/04 11:51:59;;;;;;;3.50;1.53;;;9.10;1.00;;;;;;5092110;28;20199;-68
2020/12/04 11:54:25;;;;;;;2.07;1.10;;;9.20;1.00;;;;;;5092014;28;20196;-68
2020/12/04 11:56:51;;;;;;;1.43;1.33;;;9.10;6.20;;;;;;5094627;28;20171;-68
2020/12/04 11:59:17;;;;;;;5.33;1.90;;;9.10;2.70;;;;;;5096369;28;20251;-68
2020/12/04 12:01:43;;;;;;;3.70;1.40;;;9.10;25.50;;;;;;5096178;28;20159;-68
2020/12/04 12:04:12;;;;;;;1.30;0.90;;;9.00;34.20;;;;;;5096115;28;20192;-68
2020/12/04 12:06:38;;;;;;;3.65;1.00;;;8.80;78.60;;;;;;5095586;28;20627;-68
2020/12/04 12:09:04;;;;;;;3.63;1.00;;;8.70;99.90;;;;;;5095974;28;20182;-68
2020/12/04 12:11:29;;;;;;;2.40;1.00;;;8.40;99.90;;;;;;5095789;28;20396;-68
2020/12/04 12:13:55;;;;;;;1.73;0.80;;;8.50;99.90;;;;;;5095133;28;20195;-68
2020/12/04 12:16:21;;;;;;;3.57;1.63;;;8.60;99.90;;;;;;5095548;28;20620;-68
2020/12/04 12:18:47;;;;;;;1.73;0.90;;;8.50;99.90;;;;;;5095360;28;20176;-68
2020/12/04 12:21:13;;;;;;;2.17;1.07;;;8.50;99.90;;;;;;5095253;28;20190;-68
2020/12/04 12:23:39;;;;;;;4.17;1.50;;;8.40;99.90;;;;;;5095395;28;20197;-68
2020/12/04 12:26:05;;;;;;;2.78;1.30;;;8.50;99.90;;;;;;5095428;28;20278;-68
2020/12/04 12:28:31;;;;;;;2.75;1.58;;;8.60;99.90;;;;;;5095597;28;20168;-68
2020/12/04 12:30:57;;;;;;;3.20;1.27;;;8.40;1.00;;;;;;5095182;28;20517;-69
2020/12/04 12:33:23;;;;;;;1.57;1.20;;;8.70;99.90;;;;;;5095188;28;20244;-69
2020/12/04 12:35:49;;;;;;;2.45;1.23;;;8.70;99.90;;;;;;5094952;28;20180;-69
2020/12/04 12:38:15;;;;;;;2.53;1.93;;;8.90;99.90;;;;;;5095589;28;20650;-69
2020/12/04 12:40:40;;;;;;;1.53;1.20;;;8.90;99.90;;;;;;5095244;28;20191;-69
2020/12/04 12:43:06;;;;;;;13.83;6.63;;;9.00;1.00;;;;;;5095001;28;20167;-69
2020/12/04 12:45:31;;;;;;;19.67;9.30;;;9.30;99.90;;;;;;5095294;28;20191;-69
2020/12/04 12:47:57;;;;;;;11.77;5.50;;;9.20;99.90;;;;;;5095199;28;20171;-69
2020/12/04 12:50:22;;;;;;;6.30;4.20;;;9.00;99.90;;;;;;5093231;28;20172;-69
2020/12/04 12:52:49;;;;;;;2.80;1.87;;;8.70;99.90;;;;;;5093595;28;20175;-69
2020/12/04 12:55:14;;;;;;;2.55;2.28;;;8.80;99.90;;;;;;5095296;28;20290;-69
2020/12/04 12:57:40;;;;;;;2.70;2.10;;;8.80;1.00;;;;;;5094324;28;20198;-69
2020/12/04 13:00:06;;;;;;;3.70;2.40;;;8.90;99.90;;;;;;5094730;28;20170;-69
2020/12/04 13:02:31;;;;;;;5.37;2.87;;;8.90;99.90;;;;;;5095150;28;20175;-68
2020/12/04 13:04:57;;;;;;;4.90;1.90;;;8.80;1.00;;;;;;5094970;28;20441;-68
2020/12/04 13:07:22;;;;;;;6.30;3.07;;;8.70;99.90;;;;;;5093562;28;20167;-69